createdAt,value
2019-06-07T00:00:27.317Z,0.00
2019-06-07T00:01:08.447Z,0.00
2019-06-07T00:02:06.013Z,0.00
2019-06-07T00:03:09.252Z,0.00
2019-06-07T00:04:08.503Z,0.00
2019-06-07T00:05:07.383Z,0.00
2019-06-07T00:06:07.122Z,0.00
2019-06-07T00:07:09.072Z,0.00
2019-06-07T00:08:10.782Z,0.00
2019-06-07T00:09:08.180Z,0.00
2019-06-07T00:10:06.875Z,0.00
2019-06-07T00:11:07.490Z,0.00
2019-06-07T00:12:09.145Z,0.00
2019-06-07T00:13:06.899Z,0.00
2019-06-07T00:14:05.917Z,0.00
2019-06-07T00:15:10.552Z,0.00
2019-06-07T00:16:05.867Z,0.00
2019-06-07T00:17:07.788Z,0.00
2019-06-07T00:18:10.263Z,0.00
2019-06-07T00:19:05.834Z,0.00
2019-06-07T00:20:05.823Z,0.00
2019-06-07T00:21:05.813Z,0.00
2019-06-07T00:22:16.538Z,0.00
2019-06-07T00:23:05.792Z,0.00
2019-06-07T00:24:05.781Z,0.00
2019-06-07T00:25:05.770Z,0.00
2019-06-07T00:26:05.761Z,0.00
2019-06-07T00:27:05.751Z,0.00
2019-06-07T00:28:05.738Z,0.00
2019-06-07T00:29:05.729Z,0.00
2019-06-07T00:30:29.728Z,0.00
2019-06-07T00:31:05.709Z,0.00
2019-06-07T00:32:05.697Z,0.00
2019-06-07T00:33:05.686Z,0.00
2019-06-07T00:34:05.677Z,0.00
2019-06-07T00:35:05.690Z,0.00
2019-06-07T00:36:05.655Z,0.00
2019-06-07T00:37:07.088Z,0.00
2019-06-07T00:38:05.634Z,0.00
2019-06-07T00:39:05.624Z,0.00
2019-06-07T00:40:17.970Z,0.00
2019-06-07T00:41:05.602Z,0.00
2019-06-07T00:42:05.597Z,0.00
2019-06-07T00:43:05.581Z,0.00
2019-06-07T00:44:05.570Z,0.00
2019-06-07T00:45:05.559Z,0.00
2019-06-07T00:46:05.549Z,0.00
2019-06-07T00:47:05.541Z,0.00
2019-06-07T00:48:05.673Z,0.00
2019-06-07T00:49:05.517Z,0.00
2019-06-07T00:50:05.506Z,0.00
2019-06-07T00:51:05.496Z,0.00
2019-06-07T00:52:05.486Z,0.00
2019-06-07T00:53:16.893Z,0.00
2019-06-07T00:54:05.463Z,0.00
2019-06-07T00:55:05.454Z,0.00
2019-06-07T00:56:05.446Z,0.00
2019-06-07T00:57:05.458Z,0.00
2019-06-07T00:58:05.421Z,0.00
2019-06-07T00:59:11.237Z,0.00
2019-06-07T01:00:05.401Z,0.00
2019-06-07T01:01:05.391Z,0.00
2019-06-07T01:02:05.675Z,0.00
2019-06-07T01:03:05.368Z,0.00
2019-06-07T01:04:05.357Z,0.00
2019-06-07T01:05:05.347Z,0.00
2019-06-07T01:06:05.336Z,0.00
2019-06-07T01:07:05.376Z,0.00
2019-06-07T01:08:05.316Z,0.00
2019-06-07T01:09:05.303Z,0.00
2019-06-07T01:10:05.293Z,0.00
2019-06-07T01:11:05.284Z,0.00
2019-06-07T01:12:05.272Z,0.00
2019-06-07T01:13:05.263Z,0.00
2019-06-07T01:14:05.251Z,0.00
2019-06-07T01:15:05.241Z,0.00
2019-06-07T01:16:05.229Z,0.00
2019-06-07T01:17:22.535Z,0.00
2019-06-07T01:18:36.149Z,0.00
2019-06-07T01:19:05.198Z,0.00
2019-06-07T01:20:05.186Z,0.00
2019-06-07T01:21:05.182Z,0.00
2019-06-07T01:22:05.171Z,0.00
2019-06-07T01:23:05.183Z,0.00
2019-06-07T01:24:12.086Z,0.00
2019-06-07T01:25:05.133Z,0.00
2019-06-07T01:26:05.123Z,0.00
2019-06-07T01:27:05.113Z,0.00
2019-06-07T01:28:05.103Z,0.00
2019-06-07T01:29:05.091Z,0.00
2019-06-07T01:30:05.081Z,0.00
2019-06-07T01:31:05.070Z,0.00
2019-06-07T01:32:05.061Z,0.00
2019-06-07T01:33:05.048Z,0.00
2019-06-07T01:34:05.040Z,0.00
2019-06-07T01:35:05.028Z,0.00
2019-06-07T01:36:05.016Z,0.00
2019-06-07T01:37:05.005Z,0.00
2019-06-07T01:38:04.995Z,0.00
2019-06-07T01:39:04.984Z,0.00
2019-06-07T01:40:04.977Z,0.00
2019-06-07T01:41:04.963Z,0.00
2019-06-07T01:42:04.952Z,0.00
2019-06-07T01:43:04.949Z,0.00
2019-06-07T01:44:04.931Z,0.00
2019-06-07T01:45:04.921Z,0.00
2019-06-07T01:46:04.910Z,0.00
2019-06-07T01:47:04.900Z,0.00
2019-06-07T01:48:04.892Z,0.00
2019-06-07T01:49:04.877Z,0.00
2019-06-07T01:50:04.866Z,0.00
2019-06-07T01:51:05.269Z,0.00
2019-06-07T01:52:04.844Z,0.00
2019-06-07T01:53:04.834Z,0.00
2019-06-07T01:55:04.813Z,0.00
2019-06-07T01:56:04.802Z,0.00
2019-06-07T01:57:04.793Z,0.00
2019-06-07T01:58:04.781Z,0.00
2019-06-07T01:59:04.772Z,0.00
2019-06-07T02:00:04.760Z,0.00
2019-06-07T02:01:04.748Z,0.00
2019-06-07T02:02:04.738Z,0.00
2019-06-07T02:03:04.760Z,0.00
2019-06-07T02:04:04.718Z,0.00
2019-06-07T02:05:04.706Z,0.00
2019-06-07T02:06:04.695Z,0.00
2019-06-07T02:07:04.686Z,0.00
2019-06-07T02:08:04.674Z,0.00
2019-06-07T02:09:04.663Z,0.00
2019-06-07T02:10:04.653Z,0.00
2019-06-07T02:11:04.642Z,0.00
2019-06-07T02:12:24.622Z,0.00
2019-06-07T02:13:04.621Z,0.00
2019-06-07T02:14:04.610Z,0.00
2019-06-07T02:15:04.600Z,0.00
2019-06-07T02:16:04.588Z,0.00
2019-06-07T02:17:04.578Z,0.00
2019-06-07T02:18:04.569Z,0.00
2019-06-07T02:19:04.562Z,0.00
2019-06-07T02:20:04.546Z,0.00
2019-06-07T02:21:04.535Z,0.00
2019-06-07T02:22:04.527Z,0.00
2019-06-07T02:23:04.527Z,0.00
2019-06-07T02:24:04.512Z,0.00
2019-06-07T02:25:35.174Z,0.00
2019-06-07T02:26:04.483Z,0.00
2019-06-07T02:27:04.473Z,0.00
2019-06-07T02:28:26.494Z,0.00
2019-06-07T02:29:04.451Z,0.00
2019-06-07T02:30:35.412Z,0.00
2019-06-07T02:31:04.431Z,0.00
2019-06-07T02:32:04.423Z,0.00
2019-06-07T02:33:04.409Z,0.00
2019-06-07T02:34:04.400Z,0.00
2019-06-07T02:35:04.388Z,0.00
2019-06-07T02:36:04.386Z,0.00
2019-06-07T02:37:04.367Z,0.00
2019-06-07T02:38:04.357Z,0.00
2019-06-07T02:39:04.345Z,0.00
2019-06-07T02:40:04.336Z,0.00
2019-06-07T02:41:04.336Z,0.00
2019-06-07T02:42:04.319Z,0.00
2019-06-07T02:43:04.313Z,0.00
2019-06-07T02:44:04.299Z,0.00
2019-06-07T02:45:04.282Z,0.00
2019-06-07T02:46:24.522Z,0.00
2019-06-07T02:47:04.268Z,0.00
2019-06-07T02:48:04.255Z,0.00
2019-06-07T02:49:04.239Z,0.00
2019-06-07T02:50:04.234Z,0.00
2019-06-07T02:51:04.219Z,0.00
2019-06-07T02:52:04.215Z,0.00
2019-06-07T02:53:04.196Z,0.00
2019-06-07T02:54:04.187Z,0.00
2019-06-07T02:55:04.176Z,0.00
2019-06-07T02:57:04.188Z,0.00
2019-06-07T02:58:04.150Z,0.00
2019-06-07T02:59:04.132Z,0.00
2019-06-07T03:00:27.158Z,0.00
2019-06-07T03:01:09.021Z,0.00
2019-06-07T03:02:04.103Z,0.00
2019-06-07T03:03:04.092Z,0.00
2019-06-07T03:04:04.083Z,0.00
2019-06-07T03:05:04.087Z,0.00
2019-06-07T03:06:04.075Z,0.00
2019-06-07T03:07:04.048Z,0.00
2019-06-07T03:08:04.037Z,0.00
2019-06-07T03:09:04.025Z,0.00
2019-06-07T03:10:04.016Z,0.00
2019-06-07T03:11:04.008Z,0.00
2019-06-07T03:12:03.995Z,0.00
2019-06-07T03:13:03.983Z,0.00
2019-06-07T03:14:03.974Z,0.00
2019-06-07T03:15:03.984Z,5.63
2019-06-07T03:16:03.959Z,5.63
2019-06-07T03:17:03.940Z,5.63
2019-06-07T03:18:03.930Z,5.63
2019-06-07T03:19:03.920Z,5.63
2019-06-07T03:20:03.913Z,5.63
2019-06-07T03:21:05.592Z,5.63
2019-06-07T03:22:03.889Z,5.63
2019-06-07T03:23:03.877Z,5.63
2019-06-07T03:24:03.941Z,5.63
2019-06-07T03:25:03.854Z,11.25
2019-06-07T03:26:03.847Z,11.25
2019-06-07T03:27:34.173Z,11.25
2019-06-07T03:28:03.821Z,11.25
2019-06-07T03:29:03.825Z,11.25
2019-06-07T03:30:35.222Z,11.25
2019-06-07T03:31:03.791Z,16.88
2019-06-07T03:32:03.779Z,16.88
2019-06-07T03:33:03.769Z,16.88
2019-06-07T03:34:03.807Z,16.88
2019-06-07T03:35:03.745Z,22.50
2019-06-07T03:36:22.712Z,22.50
2019-06-07T03:37:03.722Z,22.50
2019-06-07T03:38:03.712Z,28.13
2019-06-07T03:39:03.711Z,28.13
2019-06-07T03:40:03.690Z,28.13
2019-06-07T03:41:03.679Z,33.75
2019-06-07T03:42:06.756Z,33.75
2019-06-07T03:43:03.658Z,39.38
2019-06-07T03:44:03.646Z,45.00
2019-06-07T03:45:03.636Z,45.00
2019-06-07T03:46:03.628Z,50.63
2019-06-07T03:47:03.614Z,56.25
2019-06-07T03:48:03.610Z,56.25
2019-06-07T03:49:03.621Z,61.88
2019-06-07T03:50:03.586Z,61.88
2019-06-07T03:51:04.979Z,67.50
2019-06-07T03:52:03.560Z,67.50
2019-06-07T03:53:03.614Z,73.13
2019-06-07T03:54:03.540Z,73.13
2019-06-07T03:55:03.528Z,73.13
2019-06-07T03:56:03.558Z,73.13
2019-06-07T03:57:04.696Z,73.13
2019-06-07T03:58:32.709Z,73.13
2019-06-07T03:59:03.485Z,73.13
2019-06-07T04:00:03.472Z,73.13
2019-06-07T04:01:03.463Z,78.75
2019-06-07T04:02:03.451Z,78.75
2019-06-07T04:03:03.441Z,78.75
2019-06-07T04:04:03.429Z,84.38
2019-06-07T04:05:03.436Z,84.38
2019-06-07T04:06:03.413Z,90.00
2019-06-07T04:07:03.396Z,90.00
2019-06-07T04:08:03.449Z,95.63
2019-06-07T04:09:03.376Z,101.25
2019-06-07T04:10:03.371Z,101.25
2019-06-07T04:11:03.398Z,106.88
2019-06-07T04:12:03.344Z,112.50
2019-06-07T04:13:03.336Z,118.13
2019-06-07T04:14:03.322Z,123.75
2019-06-07T04:15:03.311Z,123.75
2019-06-07T04:16:03.320Z,129.38
2019-06-07T04:17:03.293Z,135.00
2019-06-07T04:18:04.097Z,135.00
2019-06-07T04:19:03.275Z,140.63
2019-06-07T04:20:03.280Z,140.63
2019-06-07T04:21:03.252Z,140.63
2019-06-07T04:22:03.408Z,140.63
2019-06-07T04:23:03.227Z,140.63
2019-06-07T04:24:03.216Z,140.63
2019-06-07T04:25:03.210Z,146.25
2019-06-07T04:26:03.195Z,146.25
2019-06-07T04:27:03.184Z,151.88
2019-06-07T04:28:03.174Z,151.88
2019-06-07T04:29:47.317Z,157.50
2019-06-07T04:30:07.891Z,157.50
2019-06-07T04:31:03.143Z,163.13
2019-06-07T04:32:04.435Z,163.13
2019-06-07T04:33:03.123Z,163.13
2019-06-07T04:34:03.112Z,163.13
2019-06-07T04:35:03.109Z,157.50
2019-06-07T04:36:03.091Z,146.25
2019-06-07T04:37:03.082Z,140.63
2019-06-07T04:38:03.069Z,140.63
2019-06-07T04:39:03.059Z,140.63
2019-06-07T04:40:03.050Z,140.63
2019-06-07T04:41:03.038Z,140.63
2019-06-07T04:42:03.036Z,146.25
2019-06-07T04:43:03.025Z,146.25
2019-06-07T04:44:03.010Z,151.88
2019-06-07T04:45:03.032Z,163.13
2019-06-07T04:46:03.004Z,163.13
2019-06-07T04:47:02.977Z,168.75
2019-06-07T04:48:02.965Z,168.75
2019-06-07T04:49:02.955Z,174.38
2019-06-07T04:50:02.948Z,174.38
2019-06-07T04:51:02.976Z,174.38
2019-06-07T04:52:02.924Z,174.38
2019-06-07T04:53:02.920Z,180.00
2019-06-07T04:54:02.905Z,180.00
2019-06-07T04:55:02.894Z,185.63
2019-06-07T04:56:02.885Z,185.63
2019-06-07T04:57:02.873Z,191.25
2019-06-07T04:58:02.864Z,196.88
2019-06-07T04:59:02.854Z,202.50
2019-06-07T05:00:33.187Z,208.13
2019-06-07T05:01:03.622Z,208.13
2019-06-07T05:02:02.822Z,208.13
2019-06-07T05:03:02.813Z,213.75
2019-06-07T05:04:02.844Z,219.38
2019-06-07T05:05:02.792Z,225.00
2019-06-07T05:06:02.783Z,230.63
2019-06-07T05:07:02.772Z,236.25
2019-06-07T05:08:07.413Z,241.88
2019-06-07T05:09:02.752Z,241.88
2019-06-07T05:10:02.767Z,247.50
2019-06-07T05:11:02.732Z,253.13
2019-06-07T05:12:02.731Z,258.75
2019-06-07T05:13:02.712Z,258.75
2019-06-07T05:14:02.712Z,270.00
2019-06-07T05:15:02.694Z,270.00
2019-06-07T05:16:02.681Z,275.63
2019-06-07T05:17:02.671Z,275.63
2019-06-07T05:18:02.662Z,275.63
2019-06-07T05:19:02.652Z,275.63
2019-06-07T05:20:02.646Z,270.00
2019-06-07T05:21:02.632Z,275.63
2019-06-07T05:22:05.078Z,281.25
2019-06-07T05:23:02.619Z,286.88
2019-06-07T05:24:09.779Z,298.13
2019-06-07T05:25:02.593Z,303.75
2019-06-07T05:26:02.583Z,315.00
2019-06-07T05:27:02.616Z,320.63
2019-06-07T05:28:02.562Z,326.25
2019-06-07T05:29:02.554Z,331.88
2019-06-07T05:30:36.515Z,331.88
2019-06-07T05:31:05.719Z,331.88
2019-06-07T05:32:02.522Z,331.88
2019-06-07T05:33:02.514Z,331.88
2019-06-07T05:34:02.504Z,331.88
2019-06-07T05:35:02.510Z,331.88
2019-06-07T05:36:02.494Z,331.88
2019-06-07T05:37:11.390Z,337.50
2019-06-07T05:38:02.466Z,348.75
2019-06-07T05:39:02.459Z,354.38
2019-06-07T05:40:02.445Z,365.63
2019-06-07T05:41:02.438Z,371.25
2019-06-07T05:42:02.426Z,371.25
2019-06-07T05:43:02.420Z,376.88
2019-06-07T05:44:12.722Z,388.13
2019-06-07T05:45:02.405Z,399.38
2019-06-07T05:46:02.400Z,416.25
2019-06-07T05:47:02.380Z,433.13
2019-06-07T05:48:02.676Z,438.75
2019-06-07T05:49:02.359Z,444.38
2019-06-07T05:50:02.975Z,444.38
2019-06-07T05:51:02.354Z,444.38
2019-06-07T05:52:02.336Z,450.00
2019-06-07T05:53:02.329Z,450.00
2019-06-07T05:54:02.358Z,438.75
2019-06-07T05:55:02.353Z,444.38
2019-06-07T05:56:02.390Z,444.38
2019-06-07T05:57:02.339Z,455.63
2019-06-07T05:58:02.279Z,466.88
2019-06-07T05:59:02.270Z,466.88
2019-06-07T06:00:02.361Z,472.50
2019-06-07T06:01:41.605Z,495.00
2019-06-07T06:02:09.460Z,500.63
2019-06-07T06:03:05.847Z,495.00
2019-06-07T06:04:02.274Z,483.75
2019-06-07T06:05:02.598Z,478.13
2019-06-07T06:06:02.208Z,466.88
2019-06-07T06:07:02.201Z,466.88
2019-06-07T06:08:02.193Z,472.50
2019-06-07T06:09:13.327Z,495.00
2019-06-07T06:10:02.183Z,511.88
2019-06-07T06:11:02.169Z,523.13
2019-06-07T06:12:02.654Z,528.75
2019-06-07T06:13:02.147Z,534.38
2019-06-07T06:14:08.109Z,528.75
2019-06-07T06:15:02.129Z,528.75
2019-06-07T06:16:02.555Z,528.75
2019-06-07T06:17:02.111Z,528.75
2019-06-07T06:18:02.103Z,534.38
2019-06-07T06:19:02.094Z,534.38
2019-06-07T06:20:02.087Z,534.38
2019-06-07T06:21:16.088Z,551.25
2019-06-07T06:22:02.067Z,562.50
2019-06-07T06:23:02.085Z,579.38
2019-06-07T06:24:02.112Z,579.38
2019-06-07T06:25:30.598Z,585.00
2019-06-07T06:26:02.033Z,585.00
2019-06-07T06:27:18.874Z,573.75
2019-06-07T06:28:10.962Z,562.50
2019-06-07T06:29:02.007Z,551.25
2019-06-07T06:30:01.999Z,523.13
2019-06-07T06:31:01.991Z,523.13
2019-06-07T06:32:40.442Z,517.50
2019-06-07T06:33:01.979Z,517.50
2019-06-07T06:34:01.965Z,517.50
2019-06-07T06:35:02.132Z,528.75
2019-06-07T06:36:01.948Z,545.63
2019-06-07T06:37:01.941Z,556.88
2019-06-07T06:38:01.936Z,562.50
2019-06-07T06:39:01.925Z,562.50
2019-06-07T06:40:01.920Z,579.38
2019-06-07T06:41:15.292Z,601.88
2019-06-07T06:42:03.909Z,601.88
2019-06-07T06:43:01.894Z,630.00
2019-06-07T06:44:01.884Z,641.25
2019-06-07T06:45:01.914Z,635.63
2019-06-07T06:46:01.914Z,652.50
2019-06-07T06:47:01.862Z,624.38
2019-06-07T06:48:01.854Z,624.38
2019-06-07T06:49:01.846Z,624.38
2019-06-07T06:50:01.841Z,635.63
2019-06-07T06:51:01.834Z,618.75
2019-06-07T06:52:01.823Z,630.00
2019-06-07T06:53:01.815Z,635.63
2019-06-07T06:54:01.808Z,635.63
2019-06-07T06:55:01.803Z,596.25
2019-06-07T06:56:01.794Z,579.38
2019-06-07T06:57:19.105Z,613.13
2019-06-07T06:58:01.778Z,624.38
2019-06-07T07:00:01.763Z,658.13
2019-06-07T07:01:06.391Z,697.50
2019-06-07T07:02:01.749Z,1091.25
2019-06-07T07:03:47.213Z,1856.25
2019-06-07T07:04:12.552Z,2086.88
2019-06-07T07:05:01.727Z,1861.88
2019-06-07T07:06:24.779Z,1996.88
2019-06-07T07:07:01.715Z,2300.63
2019-06-07T07:08:01.730Z,2131.88
2019-06-07T07:09:01.703Z,2176.88
2019-06-07T07:10:03.058Z,1231.88
2019-06-07T07:11:01.692Z,798.75
2019-06-07T07:12:11.948Z,2244.38
2019-06-07T07:13:01.717Z,2317.50
2019-06-07T07:14:01.681Z,2407.50
2019-06-07T07:15:01.767Z,2593.13
2019-06-07T07:16:01.670Z,2098.13
2019-06-07T07:17:01.662Z,2379.38
2019-06-07T07:18:08.459Z,2666.25
2019-06-07T07:19:01.655Z,1963.13
2019-06-07T07:20:01.702Z,2666.25
2019-06-07T07:21:01.647Z,2025.00
2019-06-07T07:22:01.670Z,2345.63
2019-06-07T07:23:01.718Z,2300.63
2019-06-07T07:24:20.156Z,2452.50
2019-06-07T07:25:01.634Z,2638.13
2019-06-07T07:26:01.631Z,2086.88
2019-06-07T07:27:01.627Z,1597.50
2019-06-07T07:28:01.632Z,2739.38
2019-06-07T07:29:01.620Z,2407.50
2019-06-07T07:30:34.672Z,1676.25
2019-06-07T07:31:01.614Z,2475.00
2019-06-07T07:32:01.613Z,2289.38
2019-06-07T07:33:01.652Z,2593.13
2019-06-07T07:35:01.603Z,2233.13
2019-06-07T07:36:23.124Z,2604.38
2019-06-07T07:37:01.599Z,2373.75
2019-06-07T07:38:01.613Z,2092.50
2019-06-07T07:39:05.337Z,2328.75
2019-06-07T07:40:47.555Z,2520.00
2019-06-07T07:41:13.860Z,2598.75
2019-06-07T07:42:20.229Z,2790.00
2019-06-07T07:43:01.590Z,2863.13
2019-06-07T07:44:06.552Z,2823.75
2019-06-07T07:45:01.587Z,2846.25
2019-06-07T07:46:03.279Z,2851.88
2019-06-07T07:47:01.589Z,2908.13
2019-06-07T07:48:15.284Z,2863.13
2019-06-07T07:49:01.582Z,2795.63
2019-06-07T07:50:01.582Z,3015.00
2019-06-07T07:51:03.458Z,3082.50
2019-06-07T07:52:01.581Z,2975.63
2019-06-07T07:53:01.707Z,2863.13
2019-06-07T07:54:10.600Z,2981.25
2019-06-07T07:55:01.591Z,3105.00
2019-06-07T07:56:01.759Z,3065.63
2019-06-07T07:57:01.583Z,2919.38
2019-06-07T07:58:02.051Z,3166.88
2019-06-07T07:59:02.804Z,2745.00
2019-06-07T08:00:48.013Z,2806.88
2019-06-07T08:01:10.267Z,3195.00
2019-06-07T08:02:01.589Z,3183.75
2019-06-07T08:03:04.281Z,2716.88
2019-06-07T08:04:01.592Z,2913.75
2019-06-07T08:05:25.513Z,3015.00
2019-06-07T08:06:01.605Z,2992.50
2019-06-07T08:07:01.607Z,3076.88
2019-06-07T08:08:05.365Z,3009.38
2019-06-07T08:09:01.606Z,3408.75
2019-06-07T08:10:04.135Z,3121.88
2019-06-07T08:11:02.407Z,3054.38
2019-06-07T08:12:02.598Z,3003.75
2019-06-07T08:13:22.265Z,3279.38
2019-06-07T08:14:01.619Z,3234.38
2019-06-07T08:15:03.520Z,3105.00
2019-06-07T08:16:10.745Z,3043.13
2019-06-07T08:17:01.617Z,3183.75
2019-06-07T08:18:04.505Z,3240.00
2019-06-07T08:19:03.816Z,3172.50
2019-06-07T08:20:02.960Z,3262.50
2019-06-07T08:21:21.407Z,3256.88
2019-06-07T08:22:01.941Z,3251.25
2019-06-07T08:23:01.634Z,821.25
2019-06-07T08:24:05.123Z,3369.38
2019-06-07T08:25:04.248Z,3448.13
2019-06-07T08:26:01.640Z,793.13
2019-06-07T08:27:24.631Z,2469.38
2019-06-07T08:28:01.644Z,2418.75
2019-06-07T08:29:02.944Z,2570.63
2019-06-07T08:30:25.688Z,3048.75
2019-06-07T08:31:07.012Z,3425.63
2019-06-07T08:32:01.653Z,3555.00
2019-06-07T08:33:24.828Z,3498.75
2019-06-07T08:34:01.662Z,3121.88
2019-06-07T08:35:05.829Z,3240.00
2019-06-07T08:36:19.423Z,3268.13
2019-06-07T08:37:02.202Z,3127.50
2019-06-07T08:38:25.329Z,3273.75
2019-06-07T08:39:07.254Z,3583.13
2019-06-07T08:40:02.109Z,3538.13
2019-06-07T08:41:10.948Z,3273.75
2019-06-07T08:42:15.432Z,3245.63
2019-06-07T08:43:15.234Z,3324.38
2019-06-07T08:44:21.710Z,3363.75
2019-06-07T08:45:05.457Z,3571.88
2019-06-07T08:46:07.096Z,3510.00
2019-06-07T08:47:19.301Z,3566.25
2019-06-07T08:48:09.485Z,3701.25
2019-06-07T08:49:04.575Z,3706.88
2019-06-07T08:50:07.493Z,3493.13
2019-06-07T08:51:08.170Z,3414.38
2019-06-07T08:52:10.515Z,3459.38
2019-06-07T08:53:11.447Z,3560.63
2019-06-07T08:54:21.034Z,3639.38
2019-06-07T08:55:04.905Z,3532.50
2019-06-07T08:56:09.712Z,3397.50
2019-06-07T08:57:19.338Z,3532.50
2019-06-07T08:58:08.193Z,3667.50
2019-06-07T08:59:10.771Z,3813.75
2019-06-07T09:00:16.141Z,3493.13
2019-06-07T09:01:07.709Z,3650.63
2019-06-07T09:02:09.105Z,3757.50
2019-06-07T09:03:05.216Z,3481.88
2019-06-07T09:04:07.757Z,3577.50
2019-06-07T09:05:10.605Z,3408.75
2019-06-07T09:06:16.139Z,3420.00
2019-06-07T09:07:12.093Z,3414.38
2019-06-07T09:08:23.628Z,3307.50
2019-06-07T09:09:04.828Z,3330.00
2019-06-07T09:10:09.576Z,3543.75
2019-06-07T09:11:06.343Z,3577.50
2019-06-07T09:12:07.999Z,3510.00
2019-06-07T09:13:09.957Z,3521.25
2019-06-07T09:14:08.398Z,3526.88
2019-06-07T09:15:14.774Z,3532.50
2019-06-07T09:16:08.090Z,3543.75
2019-06-07T09:17:10.248Z,3431.25
2019-06-07T09:19:10.058Z,3571.88
2019-06-07T09:20:09.424Z,3521.25
2019-06-07T09:21:07.721Z,3622.50
2019-06-07T09:22:08.231Z,3526.88
2019-06-07T09:23:15.726Z,3448.13
2019-06-07T09:24:07.053Z,3549.38
2019-06-07T09:25:09.427Z,3645.00
2019-06-07T09:26:15.427Z,3673.13
2019-06-07T09:27:05.334Z,3740.63
2019-06-07T09:28:07.936Z,3678.75
2019-06-07T09:29:06.857Z,3594.38
2019-06-07T09:30:08.872Z,3566.25
2019-06-07T09:31:06.953Z,3712.50
2019-06-07T09:32:09.684Z,3616.88
2019-06-07T09:33:06.626Z,3487.50
2019-06-07T09:34:08.315Z,3521.25
2019-06-07T09:35:08.497Z,3633.75
2019-06-07T09:36:07.208Z,3667.50
2019-06-07T09:37:24.464Z,3645.00
2019-06-07T09:38:11.014Z,3661.88
2019-06-07T09:39:07.622Z,3667.50
2019-06-07T09:40:19.406Z,3633.75
2019-06-07T09:41:03.181Z,3605.63
2019-06-07T09:42:08.373Z,3616.88
2019-06-07T09:43:47.972Z,3723.75
2019-06-07T09:44:19.290Z,3735.00
2019-06-07T09:45:05.676Z,3510.00
2019-06-07T09:46:11.071Z,3335.63
2019-06-07T09:47:22.251Z,3195.00
2019-06-07T09:48:05.696Z,2683.13
2019-06-07T09:49:14.061Z,2790.00
2019-06-07T09:50:08.377Z,3155.63
2019-06-07T09:51:09.532Z,3195.00
2019-06-07T09:52:03.610Z,3403.13
2019-06-07T09:53:10.558Z,3566.25
2019-06-07T09:54:06.862Z,3661.88
2019-06-07T09:55:09.458Z,3684.38
2019-06-07T09:56:04.526Z,3751.88
2019-06-07T09:57:07.002Z,3746.25
2019-06-07T09:58:30.296Z,3813.75
2019-06-07T09:59:04.777Z,3633.75
2019-06-07T10:00:33.570Z,3661.88
2019-06-07T10:01:06.199Z,3819.38
2019-06-07T10:02:03.626Z,3633.75
2019-06-07T10:03:08.816Z,3498.75
2019-06-07T10:04:07.371Z,3532.50
2019-06-07T10:05:05.216Z,3661.88
2019-06-07T10:06:07.572Z,3678.75
2019-06-07T10:07:10.481Z,3571.88
2019-06-07T10:08:20.959Z,3729.38
2019-06-07T10:11:02.648Z,3718.13
2019-06-07T10:12:02.349Z,3763.13
2019-06-07T10:13:03.801Z,3796.88
2019-06-07T10:14:02.481Z,3723.75
2019-06-07T10:15:02.920Z,3746.25
2019-06-07T10:16:02.799Z,3836.25
2019-06-07T10:17:03.202Z,3808.13
2019-06-07T10:18:02.820Z,3825.00
2019-06-07T10:19:03.655Z,3780.00
2019-06-07T10:20:03.923Z,3600.00
2019-06-07T10:21:03.740Z,3526.88
2019-06-07T10:22:03.368Z,3735.00
2019-06-07T10:23:03.706Z,3864.38
2019-06-07T10:24:03.494Z,3819.38
2019-06-07T10:25:02.488Z,3701.25
2019-06-07T10:26:03.961Z,3566.25
2019-06-07T10:27:03.885Z,3718.13
2019-06-07T10:28:03.736Z,3785.63
2019-06-07T10:29:04.894Z,3780.00
2019-06-07T10:30:03.963Z,3836.25
2019-06-07T10:31:02.520Z,3757.50
2019-06-07T10:32:02.500Z,3718.13
2019-06-07T10:33:02.524Z,3690.00
2019-06-07T10:34:02.516Z,3628.13
2019-06-07T10:35:03.305Z,3673.13
2019-06-07T10:36:02.554Z,3836.25
2019-06-07T10:37:03.802Z,3858.75
2019-06-07T10:38:02.588Z,3870.00
2019-06-07T10:39:02.940Z,3802.50
2019-06-07T10:40:02.928Z,3633.75
2019-06-07T10:41:02.871Z,3678.75
2019-06-07T10:42:04.055Z,3616.88
2019-06-07T10:43:03.053Z,3650.63
2019-06-07T10:44:03.342Z,3650.63
2019-06-07T10:45:04.411Z,3583.13
2019-06-07T10:46:03.671Z,3639.38
2019-06-07T10:47:03.845Z,3616.88
2019-06-07T10:48:03.568Z,3498.75
2019-06-07T10:49:03.789Z,3526.88
2019-06-07T10:50:03.802Z,3583.13
2019-06-07T10:51:04.088Z,3667.50
2019-06-07T10:52:04.785Z,3751.88
2019-06-07T10:53:02.679Z,3701.25
2019-06-07T10:54:10.805Z,3600.00
2019-06-07T10:55:02.695Z,3622.50
2019-06-07T10:56:02.986Z,3616.88
2019-06-07T10:57:02.957Z,3543.75
2019-06-07T10:58:02.828Z,3538.13
2019-06-07T10:59:03.155Z,3571.88
2019-06-07T11:00:03.489Z,3543.75
2019-06-07T11:01:03.374Z,3470.63
2019-06-07T11:02:03.471Z,3650.63
2019-06-07T11:03:03.616Z,3729.38
2019-06-07T11:04:03.390Z,3684.38
2019-06-07T11:05:03.679Z,3633.75
2019-06-07T11:06:03.730Z,3611.25
2019-06-07T11:07:04.415Z,3571.88
2019-06-07T11:08:03.877Z,3510.00
2019-06-07T11:09:03.792Z,3538.13
2019-06-07T11:10:09.367Z,3577.50
2019-06-07T11:11:03.830Z,3566.25
2019-06-07T11:12:04.221Z,3481.88
2019-06-07T11:13:04.027Z,3594.38
2019-06-07T11:14:04.293Z,3757.50
2019-06-07T11:15:02.855Z,3768.75
2019-06-07T11:16:02.863Z,3645.00
2019-06-07T11:17:02.869Z,3369.38
2019-06-07T11:18:02.887Z,3307.50
2019-06-07T11:19:02.939Z,3324.38
2019-06-07T11:20:02.890Z,2188.13
2019-06-07T11:21:02.900Z,3667.50
2019-06-07T11:22:02.907Z,3791.25
2019-06-07T11:23:02.916Z,2351.25
2019-06-07T11:24:02.925Z,742.50
2019-06-07T11:25:03.539Z,3751.88
2019-06-07T11:26:02.946Z,3493.13
2019-06-07T11:27:02.945Z,3403.13
2019-06-07T11:28:02.954Z,3442.50
2019-06-07T11:29:02.969Z,3588.75
2019-06-07T11:30:02.988Z,3667.50
2019-06-07T11:31:02.975Z,3763.13
2019-06-07T11:32:02.982Z,3673.13
2019-06-07T11:33:02.989Z,3706.88
2019-06-07T11:34:02.999Z,1018.13
2019-06-07T11:35:03.013Z,3864.38
2019-06-07T11:36:03.013Z,3645.00
2019-06-07T11:37:03.066Z,967.50
2019-06-07T11:38:03.061Z,1063.13
2019-06-07T11:39:03.039Z,1518.75
2019-06-07T11:40:03.044Z,1158.75
2019-06-07T11:41:03.055Z,4111.88
2019-06-07T11:42:03.058Z,1389.38
2019-06-07T11:43:03.144Z,3982.50
2019-06-07T11:44:03.077Z,3931.88
2019-06-07T11:45:03.076Z,877.50
2019-06-07T11:46:03.082Z,3600.00
2019-06-07T11:47:03.092Z,1108.13
2019-06-07T11:48:03.096Z,3639.38
2019-06-07T11:49:03.162Z,3751.88
2019-06-07T11:50:03.104Z,995.63
2019-06-07T11:51:03.110Z,3667.50
2019-06-07T11:52:03.114Z,3493.13
2019-06-07T11:53:03.124Z,3526.88
2019-06-07T11:54:03.129Z,3470.63
2019-06-07T11:55:03.138Z,3543.75
2019-06-07T11:56:03.145Z,3583.13
2019-06-07T11:57:03.149Z,3493.13
2019-06-07T11:58:03.168Z,3324.38
2019-06-07T11:59:03.164Z,3375.00
2019-06-07T12:00:03.171Z,663.75
2019-06-07T12:01:03.181Z,3386.25
2019-06-07T12:02:03.188Z,3009.38
2019-06-07T12:03:03.194Z,3526.88
2019-06-07T12:04:03.202Z,3268.13
2019-06-07T12:05:03.207Z,3307.50
2019-06-07T12:06:03.213Z,3521.25
2019-06-07T12:07:03.242Z,2941.88
2019-06-07T12:08:03.225Z,3532.50
2019-06-07T12:09:03.238Z,3481.88
2019-06-07T12:10:03.240Z,3425.63
2019-06-07T12:11:03.248Z,877.50
2019-06-07T12:12:03.255Z,765.00
2019-06-07T12:13:03.260Z,3532.50
2019-06-07T12:14:03.268Z,1743.75
2019-06-07T12:15:03.275Z,3290.63
2019-06-07T12:16:03.279Z,3903.75
2019-06-07T12:17:03.315Z,1490.63
2019-06-07T12:18:03.291Z,995.63
2019-06-07T12:19:03.307Z,759.38
2019-06-07T12:20:03.412Z,714.38
2019-06-07T12:21:03.308Z,759.38
2019-06-07T12:22:03.319Z,815.63
2019-06-07T12:23:03.321Z,815.63
2019-06-07T12:24:03.353Z,793.13
2019-06-07T12:25:05.814Z,871.88
2019-06-07T12:26:03.326Z,2075.63
2019-06-07T12:27:03.351Z,990.00
2019-06-07T12:28:03.330Z,759.38
2019-06-07T12:29:03.334Z,703.13
2019-06-07T12:30:09.464Z,658.13
2019-06-07T12:31:03.337Z,680.63
2019-06-07T12:32:03.340Z,793.13
2019-06-07T12:33:03.347Z,883.13
2019-06-07T12:34:03.342Z,1074.38
2019-06-07T12:35:03.344Z,1276.88
2019-06-07T12:36:03.347Z,2126.25
2019-06-07T12:37:03.345Z,1181.25
2019-06-07T12:38:03.348Z,877.50
2019-06-07T12:39:03.347Z,748.13